TimeEDT,TemperatureF,Dew PointF,Humidity,Sea Level PressureIn,VisibilityMPH,Wind Direction,Wind SpeedMPH,Gust SpeedMPH,PrecipitationIn,Events,Conditions,WindDirDegrees,DateUTC
12:00 AM,55.4,48.2,77,29.89,15.0,Calm,Calm,-,N/A,,Partly Cloudy,0,2012-10-02 04:00:00
1:00 AM,51.8,48.2,88,29.90,15.0,NNW,4.6,-,N/A,,Mostly Cloudy,330,2012-10-02 05:00:00
2:00 AM,53,49,84,29.89,15,NNE,2.3,,,,Mostly Cloudy,20,2012-10-02 06:00:00
2:00 AM,53.6,50.0,88,29.89,15.0,NNE,2.3,-,N/A,,Mostly Cloudy,20,2012-10-02 06:00:00
3:00 AM,51.8,50.0,94,29.88,15.0,Calm,Calm,-,N/A,,Overcast,0,2012-10-02 07:00:00
4:00 AM,53.6,50.0,88,29.89,15.0,Calm,Calm,-,N/A,,Overcast,0,2012-10-02 08:00:00
5:00 AM,53.6,50.0,88,29.89,15.0,North,4.6,-,N/A,,Overcast,360,2012-10-02 09:00:00
5:29 AM,53.6,-9999,N/A,-9999,15.0,NNE,2.3,-,N/A,Rain,Light Rain,30,2012-10-02 09:29:00
5:52 AM,53.6,-9999,N/A,-9999,15.0,NNE,4.6,-,N/A,,Overcast,20,2012-10-02 09:52:00
6:00 AM,53.6,50.0,88,29.89,15.0,NNE,4.6,-,N/A,,Overcast,30,2012-10-02 10:00:00
7:00 AM,55.4,51.8,88,29.89,15.0,NNE,3.5,-,N/A,,Overcast,30,2012-10-02 11:00:00
8:00 AM,56,51,79,29.90,15,NE,2.3,,,,Partly Cloudy,40,2012-10-02 12:00:00
8:00 AM,57.2,51.8,82,29.90,15.0,NE,3.5,-,N/A,,Overcast,40,2012-10-02 12:00:00
9:00 AM,59.0,51.8,77,29.91,15.0,East,2.3,-,N/A,,Overcast,80,2012-10-02 13:00:00
10:00 AM,60.8,51.8,72,29.92,15.0,East,4.6,-,N/A,,Overcast,90,2012-10-02 14:00:00
11:00 AM,62.6,55.4,77,29.91,15.0,ESE,9.2,-,N/A,,Mostly Cloudy,120,2012-10-02 15:00:00
12:00 PM,64.4,55.4,73,29.92,15.0,East,5.8,-,N/A,,Mostly Cloudy,80,2012-10-02 16:00:00
1:00 PM,66.2,55.4,68,29.91,15.0,ENE,6.9,-,N/A,,Mostly Cloudy,60,2012-10-02 17:00:00
2:00 PM,66,54,56,29.91,15,East,6.9,,,,Scattered Clouds,90,2012-10-02 18:00:00
2:00 PM,66.2,53.6,64,29.91,15.0,East,4.6,-,N/A,,Mostly Cloudy,90,2012-10-02 18:00:00
3:00 PM,66.2,55.4,68,29.90,15.0,ENE,4.6,-,N/A,,Mostly Cloudy,70,2012-10-02 19:00:00
4:00 PM,68.0,51.8,56,29.90,15.0,ENE,8.1,-,N/A,,Mostly Cloudy,70,2012-10-02 20:00:00
5:00 PM,68.0,51.8,56,29.91,15.0,East,8.1,-,N/A,,Scattered Clouds,100,2012-10-02 21:00:00
6:00 PM,64.4,53.6,68,29.92,15.0,SE,6.9,-,N/A,,Scattered Clouds,140,2012-10-02 22:00:00
7:00 PM,62.6,53.6,72,29.94,15.0,East,5.8,-,N/A,,Mostly Cloudy,100,2012-10-02 23:00:00
8:00 PM,60,55,77,29.96,15,East,5.8,,,,Partly Cloudy,100,2012-10-03 00:00:00
8:00 PM,60.8,55.4,82,29.96,15.0,East,5.8,-,N/A,,Mostly Cloudy,100,2012-10-03 00:00:00
9:00 PM,60.8,55.4,82,29.97,15.0,East,5.8,-,N/A,,Mostly Cloudy,90,2012-10-03 01:00:00
10:00 PM,59.0,55.4,88,29.98,12.0,East,3.5,-,N/A,,Scattered Clouds,90,2012-10-03 02:00:00
11:00 PM,59.0,55.4,88,29.97,12.0,ENE,3.5,-,N/A,,Partly Cloudy,70,2012-10-03 03:00:00
11:47 PM,60.8,-9999,N/A,-9999,12.0,ENE,4.6,-,N/A,,Overcast,70,2012-10-03 03:47:00